Time;durP1;ratioP1;P1;durP2;ratioP2;P2;SDS_P1;SDS_P2;PMS_P1;PMS_P2;Temp;Humidity;BMP_temperature;BMP_pressure;BME280_temperature;BME280_humidity;BME280_pressure;Samples;Min_cycle;Max_cycle;Signal;HPM_P1;HPM_P2
2023/05/27 00:01:32;;;;;;;12.77;3.65;;;;;;;;;;4953641;28;20065;-66
2023/05/27 00:03:57;;;;;;;7.72;3.42;;;;;;;;;;4953218;28;20804;-66
2023/05/27 00:06:23;;;;;;;11.07;3.92;;;;;;;;;;4954201;28;20040;-67
2023/05/27 00:08:48;;;;;;;9.32;3.05;;;;;;;;;;4954926;28;20034;-66
2023/05/27 00:11:14;;;;;;;10.40;3.42;;;;;;;;;;4941822;28;20499;-66
2023/05/27 00:13:39;;;;;;;9.25;3.13;;;;;;;;;;4948111;28;20054;-66
2023/05/27 00:16:05;;;;;;;8.88;3.30;;;;;;;;;;4951902;28;20042;-67
2023/05/27 00:18:32;;;;;;;9.93;3.67;;;;;;;;;;4948046;28;20093;-67
2023/05/27 00:20:58;;;;;;;7.55;2.97;;;;;;;;;;4957935;28;20047;-67
2023/05/27 00:23:24;;;;;;;4.50;2.50;;;;;;;;;;4957020;28;20039;-67
2023/05/27 00:25:49;;;;;;;10.23;3.05;;;;;;;;;;4945896;28;20257;-67
2023/05/27 00:28:15;;;;;;;9.98;3.42;;;;;;;;;;4944572;28;20045;-67
2023/05/27 00:30:41;;;;;;;9.55;3.08;;;;;;;;;;4937143;28;20038;-66
2023/05/27 00:33:06;;;;;;;8.40;2.78;;;;;;;;;;4953280;28;20403;-67
2023/05/27 00:35:31;;;;;;;5.97;2.70;;;;;;;;;;4958053;28;20553;-67
2023/05/27 00:37:57;;;;;;;6.05;3.42;;;;;;;;;;4951934;28;20062;-67
2023/05/27 00:40:24;;;;;;;13.30;3.63;;;;;;;;;;4941427;28;20035;-67
2023/05/27 00:42:50;;;;;;;5.38;2.92;;;;;;;;;;4944453;28;20529;-67
2023/05/27 00:45:15;;;;;;;13.07;3.05;;;;;;;;;;4955747;28;20107;-67
2023/05/27 00:47:41;;;;;;;8.75;3.28;;;;;;;;;;4952452;28;20038;-67
2023/05/27 00:50:07;;;;;;;11.55;3.20;;;;;;;;;;4954260;28;20058;-67
2023/05/27 00:52:33;;;;;;;11.35;3.75;;;;;;;;;;4945046;28;20185;-67
2023/05/27 00:54:59;;;;;;;9.07;3.40;;;;;;;;;;4946020;28;20122;-67
2023/05/27 00:57:25;;;;;;;9.23;2.95;;;;;;;;;;4954979;28;20047;-66
2023/05/27 00:59:51;;;;;;;7.78;3.45;;;;;;;;;;4929973;28;20105;-67
2023/05/27 01:02:17;;;;;;;7.95;3.05;;;;;;;;;;4944633;28;20046;-66
2023/05/27 01:04:46;;;;;;;9.77;3.60;;;;;;;;;;4947513;28;20154;-67
2023/05/27 01:07:45;;;;;;;7.90;3.45;;;;;;;;;;4938033;28;20075;-66
2023/05/27 01:10:21;;;;;;;7.82;3.25;;;;;;;;;;4937392;28;20070;-66
2023/05/27 01:12:46;;;;;;;7.32;3.75;;;;;;;;;;4960232;28;20045;-65
2023/05/27 01:15:12;;;;;;;10.30;3.45;;;;;;;;;;4958196;28;20649;-67
2023/05/27 01:17:42;;;;;;;7.75;3.28;;;;;;;;;;4942688;28;20113;-66
2023/05/27 01:20:13;;;;;;;10.10;3.08;;;;;;;;;;4953583;28;20038;-67
2023/05/27 01:22:41;;;;;;;9.00;2.95;;;;;;;;;;4925026;28;20063;-67
2023/05/27 01:25:08;;;;;;;7.68;3.22;;;;;;;;;;4957738;28;20079;-67
2023/05/27 01:27:33;;;;;;;9.00;3.60;;;;;;;;;;4961015;28;20062;-67
2023/05/27 01:29:59;;;;;;;10.98;3.45;;;;;;;;;;4943488;28;20086;-66
2023/05/27 01:32:31;;;;;;;8.50;3.70;;;;;;;;;;4948565;28;20872;-67
2023/05/27 01:35:17;;;;;;;9.13;2.97;;;;;;;;;;4950999;28;20130;-67
2023/05/27 01:37:44;;;;;;;8.95;3.72;;;;;;;;;;4954946;28;20034;-67
2023/05/27 01:40:12;;;;;;;5.82;3.33;;;;;;;;;;4952139;28;20051;-67
2023/05/27 01:42:40;;;;;;;8.88;3.53;;;;;;;;;;4915150;28;20047;-66
2023/05/27 01:45:07;;;;;;;15.55;3.63;;;;;;;;;;4955916;28;20045;-68
2023/05/27 01:47:33;;;;;;;8.70;3.15;;;;;;;;;;4951853;28;20045;-67
2023/05/27 01:49:59;;;;;;;12.05;2.97;;;;;;;;;;4957699;28;20035;-66
2023/05/27 01:52:25;;;;;;;8.43;3.22;;;;;;;;;;4959345;28;20121;-67
2023/05/27 01:54:51;;;;;;;9.02;3.65;;;;;;;;;;4941784;28;20058;-67
2023/05/27 01:57:17;;;;;;;6.90;3.10;;;;;;;;;;4960173;28;20515;-67
2023/05/27 01:59:42;;;;;;;10.48;2.92;;;;;;;;;;4941647;28;20562;-66
2023/05/27 02:02:08;;;;;;;10.43;3.88;;;;;;;;;;4952799;28;20054;-69
2023/05/27 02:04:33;;;;;;;8.57;3.30;;;;;;;;;;4953614;28;20043;-69
2023/05/27 02:06:59;;;;;;;4.95;2.47;;;;;;;;;;4953197;28;20043;-69
2023/05/27 02:09:25;;;;;;;7.53;2.60;;;;;;;;;;4948281;28;20125;-69
2023/05/27 02:11:50;;;;;;;9.25;3.10;;;;;;;;;;4958283;28;20042;-68
2023/05/27 02:14:15;;;;;;;7.57;3.00;;;;;;;;;;4947721;28;20050;-67
2023/05/27 02:16:42;;;;;;;9.70;2.95;;;;;;;;;;4952472;28;20039;-69
2023/05/27 02:19:07;;;;;;;8.25;2.95;;;;;;;;;;4956578;28;20035;-68
2023/05/27 02:21:33;;;;;;;6.22;3.15;;;;;;;;;;4959962;28;20594;-68
2023/05/27 02:23:58;;;;;;;8.40;3.00;;;;;;;;;;4947004;28;20035;-68
2023/05/27 02:26:24;;;;;;;9.57;3.60;;;;;;;;;;4952430;28;20537;-68
2023/05/27 02:28:50;;;;;;;6.82;3.05;;;;;;;;;;4949900;28;20110;-69
2023/05/27 02:31:16;;;;;;;6.85;2.65;;;;;;;;;;4945044;28;20038;-67
2023/05/27 02:33:41;;;;;;;6.30;2.90;;;;;;;;;;4948350;28;20088;-67
2023/05/27 02:36:06;;;;;;;8.20;2.97;;;;;;;;;;4956146;28;20122;-68
2023/05/27 02:38:32;;;;;;;10.95;3.47;;;;;;;;;;4945080;28;20049;-67
2023/05/27 02:40:58;;;;;;;6.50;2.83;;;;;;;;;;4956741;28;20054;-67
2023/05/27 02:43:23;;;;;;;9.43;3.42;;;;;;;;;;4928814;28;20042;-68
2023/05/27 02:45:48;;;;;;;9.32;3.70;;;;;;;;;;4953707;28;20038;-67
2023/05/27 02:48:14;;;;;;;7.65;3.05;;;;;;;;;;4952837;28;20043;-67
2023/05/27 02:50:39;;;;;;;12.13;4.03;;;;;;;;;;4955551;28;20042;-67
2023/05/27 02:53:05;;;;;;;7.65;3.15;;;;;;;;;;4945603;28;20043;-67
2023/05/27 02:55:30;;;;;;;10.00;3.47;;;;;;;;;;4959365;28;20086;-66
2023/05/27 02:57:56;;;;;;;3.63;1.65;;;;;;;;;;4942430;28;20047;-67
2023/05/27 03:00:21;;;;;;;11.32;3.20;;;;;;;;;;4950964;28;20531;-68
2023/05/27 03:02:47;;;;;;;10.52;3.50;;;;;;;;;;4956342;28;20050;-67
2023/05/27 03:05:13;;;;;;;7.35;2.92;;;;;;;;;;4956500;28;20038;-67
2023/05/27 03:07:39;;;;;;;9.35;3.10;;;;;;;;;;4948927;28;20039;-67
2023/05/27 03:10:05;;;;;;;6.40;3.05;;;;;;;;;;4945278;28;20129;-67
2023/05/27 03:12:31;;;;;;;7.55;3.30;;;;;;;;;;4954109;28;20614;-66
2023/05/27 03:14:56;;;;;;;6.65;2.92;;;;;;;;;;4956804;28;20149;-67
2023/05/27 03:17:21;;;;;;;8.90;3.83;;;;;;;;;;4952337;28;20289;-66
2023/05/27 03:19:47;;;;;;;7.38;3.13;;;;;;;;;;4947435;28;20040;-66
2023/05/27 03:22:12;;;;;;;8.35;3.70;;;;;;;;;;4951536;28;20192;-67
2023/05/27 03:24:37;;;;;;;5.97;2.70;;;;;;;;;;4947915;28;20046;-67
2023/05/27 03:27:06;;;;;;;8.80;3.33;;;;;;;;;;4951693;28;20031;-67
2023/05/27 03:29:31;;;;;;;9.38;2.90;;;;;;;;;;4954023;28;20125;-67
2023/05/27 03:31:56;;;;;;;7.13;3.22;;;;;;;;;;4951409;28;20122;-67
2023/05/27 03:34:22;;;;;;;12.75;3.38;;;;;;;;;;4941396;28;20046;-68
2023/05/27 03:36:49;;;;;;;9.77;3.58;;;;;;;;;;4941326;28;20129;-68
2023/05/27 03:39:16;;;;;;;8.68;3.35;;;;;;;;;;4946343;28;20408;-67
2023/05/27 03:41:42;;;;;;;6.93;3.17;;;;;;;;;;4960226;28;20451;-67
2023/05/27 03:44:07;;;;;;;7.20;3.10;;;;;;;;;;4949311;28;20039;-66
2023/05/27 03:46:33;;;;;;;7.72;3.40;;;;;;;;;;4953518;28;20039;-68
2023/05/27 03:48:58;;;;;;;6.40;2.97;;;;;;;;;;4945427;28;20074;-67
2023/05/27 03:51:24;;;;;;;8.68;3.15;;;;;;;;;;4957599;28;20042;-67
2023/05/27 03:53:50;;;;;;;7.75;3.28;;;;;;;;;;4946880;28;20129;-67
2023/05/27 03:56:15;;;;;;;8.63;3.35;;;;;;;;;;4950326;28;20046;-68
2023/05/27 03:58:41;;;;;;;6.35;3.10;;;;;;;;;;4957857;28;20487;-67
2023/05/27 04:01:06;;;;;;;7.47;3.25;;;;;;;;;;4950447;28;20086;-67
2023/05/27 04:03:32;;;;;;;10.10;2.70;;;;;;;;;;4944063;28;20093;-67
2023/05/27 04:05:58;;;;;;;11.63;3.33;;;;;;;;;;4950452;28;20054;-67
2023/05/27 04:08:25;;;;;;;7.38;2.63;;;;;;;;;;4939900;28;20040;-66
2023/05/27 04:11:00;;;;;;;8.68;3.15;;;;;;;;;;4952244;28;20054;-67
2023/05/27 04:13:25;;;;;;;6.15;2.92;;;;;;;;;;4953361;28;20154;-67
2023/05/27 04:15:50;;;;;;;10.02;3.38;;;;;;;;;;4943278;28;20186;-70
2023/05/27 04:18:16;;;;;;;6.75;3.13;;;;;;;;;;4954741;28;20046;-70
2023/05/27 04:20:42;;;;;;;9.10;3.00;;;;;;;;;;4931845;28;20573;-70
2023/05/27 04:23:10;;;;;;;8.82;3.35;;;;;;;;;;4955407;28;20058;-70
2023/05/27 04:25:37;;;;;;;6.40;3.25;;;;;;;;;;4957155;28;20034;-70
2023/05/27 04:28:06;;;;;;;12.15;3.22;;;;;;;;;;4950317;28;20746;-70
2023/05/27 04:30:32;;;;;;;8.88;3.42;;;;;;;;;;4927982;28;20063;-70
2023/05/27 04:32:59;;;;;;;6.85;3.22;;;;;;;;;;4944563;28;20105;-71
2023/05/27 04:35:25;;;;;;;8.82;3.03;;;;;;;;;;4956885;28;20046;-70
2023/05/27 04:37:50;;;;;;;8.05;2.88;;;;;;;;;;4956115;28;20045;-70
2023/05/27 04:40:16;;;;;;;8.18;3.20;;;;;;;;;;4955311;28;20034;-70
2023/05/27 04:42:43;;;;;;;7.82;2.50;;;;;;;;;;4949965;28;20891;-71
2023/05/27 04:45:10;;;;;;;8.20;3.47;;;;;;;;;;4958108;28;20035;-70
2023/05/27 04:47:37;;;;;;;5.18;2.58;;;;;;;;;;4946429;28;20045;-70
2023/05/27 04:50:03;;;;;;;9.02;3.53;;;;;;;;;;4953519;28;20035;-70
2023/05/27 04:52:29;;;;;;;7.90;2.90;;;;;;;;;;4961457;28;20100;-70
2023/05/27 04:54:55;;;;;;;8.00;3.35;;;;;;;;;;4959357;28;20512;-70
2023/05/27 04:57:23;;;;;;;10.15;3.72;;;;;;;;;;4949177;28;20045;-70
2023/05/27 05:00:36;;;;;;;8.70;3.28;;;;;;;;;;4959474;28;20050;-70
2023/05/27 05:02:35;;;;;;;7.85;3.20;;;;;;;;;;4934551;28;20038;-70
2023/05/27 05:05:10;;;;;;;6.50;3.10;;;;;;;;;;4958021;28;20039;-70
2023/05/27 05:07:40;;;;;;;8.45;3.20;;;;;;;;;;4950930;28;20081;-70
2023/05/27 05:10:07;;;;;;;11.20;3.87;;;;;;;;;;4958016;28;20061;-70
2023/05/27 05:12:32;;;;;;;8.02;3.42;;;;;;;;;;4956495;28;20130;-70
2023/05/27 05:14:58;;;;;;;7.93;3.15;;;;;;;;;;4949636;28;20150;-70
2023/05/27 05:17:24;;;;;;;8.55;2.97;;;;;;;;;;4945067;28;20046;-70
2023/05/27 05:19:51;;;;;;;8.15;3.15;;;;;;;;;;4959455;28;20510;-70
2023/05/27 05:22:18;;;;;;;8.95;3.25;;;;;;;;;;4947672;28;20085;-70
2023/05/27 05:24:46;;;;;;;10.68;3.95;;;;;;;;;;4957048;28;20125;-70
2023/05/27 05:27:12;;;;;;;12.43;3.42;;;;;;;;;;4954103;28;20058;-70
2023/05/27 05:29:37;;;;;;;8.77;3.50;;;;;;;;;;4950110;28;20061;-70
2023/05/27 05:32:03;;;;;;;8.50;3.00;;;;;;;;;;4953879;28;20047;-70
2023/05/27 05:34:29;;;;;;;9.15;3.60;;;;;;;;;;4946439;28;20098;-70
2023/05/27 05:36:54;;;;;;;6.68;2.63;;;;;;;;;;4943742;28;20042;-68
2023/05/27 05:39:22;;;;;;;5.80;2.83;;;;;;;;;;4953303;28;20043;-67
2023/05/27 05:41:48;;;;;;;5.45;2.22;;;;;;;;;;4945198;28;20106;-68
2023/05/27 05:44:15;;;;;;;8.60;3.00;;;;;;;;;;4955728;28;20047;-67
2023/05/27 05:46:40;;;;;;;8.73;3.00;;;;;;;;;;4946739;28;20043;-67
2023/05/27 05:49:06;;;;;;;6.38;3.10;;;;;;;;;;4936505;28;20043;-68
2023/05/27 05:51:31;;;;;;;6.93;3.13;;;;;;;;;;4944212;28;20042;-67
2023/05/27 05:53:57;;;;;;;9.00;3.42;;;;;;;;;;4938754;28;22124;-68
2023/05/27 05:56:23;;;;;;;7.53;3.35;;;;;;;;;;4937091;28;20046;-67
2023/05/27 05:58:48;;;;;;;10.70;3.53;;;;;;;;;;4949078;28;20112;-66
2023/05/27 06:01:15;;;;;;;10.05;3.20;;;;;;;;;;4947413;28;20688;-68
2023/05/27 06:03:40;;;;;;;8.20;3.13;;;;;;;;;;4940722;28;20725;-67
2023/05/27 06:06:05;;;;;;;8.25;3.45;;;;;;;;;;4948717;28;20043;-68
2023/05/27 06:08:31;;;;;;;10.35;3.47;;;;;;;;;;4954734;28;20042;-67
2023/05/27 06:10:56;;;;;;;10.73;3.35;;;;;;;;;;4936483;28;20042;-67
2023/05/27 06:13:22;;;;;;;7.13;3.05;;;;;;;;;;4949199;28;20145;-67
2023/05/27 06:15:47;;;;;;;7.40;2.80;;;;;;;;;;4947153;28;20034;-67
2023/05/27 06:18:14;;;;;;;8.60;3.03;;;;;;;;;;4938787;28;20051;-67
2023/05/27 06:20:39;;;;;;;7.13;2.70;;;;;;;;;;4953477;28;20049;-67
2023/05/27 06:23:05;;;;;;;8.40;2.35;;;;;;;;;;4951216;28;20043;-67
2023/05/27 06:25:30;;;;;;;3.05;1.83;;;;;;;;;;4939553;28;20038;-68
2023/05/27 06:27:56;;;;;;;4.93;1.58;;;;;;;;;;4949766;28;20042;-68
2023/05/27 06:30:21;;;;;;;8.88;2.67;;;;;;;;;;4940146;28;20058;-67
2023/05/27 06:32:46;;;;;;;6.85;2.33;;;;;;;;;;4953379;28;20689;-70
2023/05/27 06:35:12;;;;;;;6.72;3.13;;;;;;;;;;4955424;28;20046;-73
2023/05/27 06:37:37;;;;;;;6.35;3.17;;;;;;;;;;4954230;28;20092;-69
2023/05/27 06:40:03;;;;;;;9.70;3.40;;;;;;;;;;4936476;28;20057;-68
2023/05/27 06:42:28;;;;;;;4.82;2.28;;;;;;;;;;4958715;28;20038;-67
2023/05/27 06:44:53;;;;;;;3.25;1.77;;;;;;;;;;4941686;28;20035;-69
2023/05/27 06:47:20;;;;;;;1.77;1.23;;;;;;;;;;4954864;28;20043;-67
2023/05/27 06:49:45;;;;;;;7.45;2.50;;;;;;;;;;4949356;28;20044;-71
2023/05/27 06:52:10;;;;;;;9.82;2.80;;;;;;;;;;4949770;28;20053;-71
2023/05/27 06:54:36;;;;;;;12.60;4.13;;;;;;;;;;4915761;28;20544;-71
2023/05/27 06:57:02;;;;;;;9.05;2.90;;;;;;;;;;4952526;28;20403;-70
2023/05/27 06:59:28;;;;;;;9.20;3.38;;;;;;;;;;4948347;28;20042;-70
2023/05/27 07:01:53;;;;;;;10.20;4.22;;;;;;;;;;4949817;28;20129;-71
2023/05/27 07:04:19;;;;;;;1.95;1.00;;;;;;;;;;4954242;28;20061;-70
2023/05/27 07:06:44;;;;;;;7.63;2.80;;;;;;;;;;4947182;28;20065;-71
2023/05/27 07:09:11;;;;;;;6.10;2.85;;;;;;;;;;4950204;28;20513;-71
2023/05/27 07:11:36;;;;;;;6.40;2.58;;;;;;;;;;4954623;28;20142;-70
2023/05/27 07:14:02;;;;;;;1.92;1.02;;;;;;;;;;4941276;28;20535;-71
2023/05/27 07:16:27;;;;;;;7.10;2.25;;;;;;;;;;4953075;28;20117;-70
2023/05/27 07:18:52;;;;;;;6.07;2.50;;;;;;;;;;4950455;28;20411;-70
2023/05/27 07:21:18;;;;;;;8.98;3.38;;;;;;;;;;4940294;28;20454;-70
2023/05/27 07:23:43;;;;;;;8.52;2.80;;;;;;;;;;4953601;28;20105;-70
2023/05/27 07:26:09;;;;;;;6.18;2.40;;;;;;;;;;4953357;28;20455;-71
2023/05/27 07:28:34;;;;;;;8.00;2.78;;;;;;;;;;4944605;28;20411;-70
2023/05/27 07:31:00;;;;;;;7.18;3.47;;;;;;;;;;4953176;28;20122;-70
2023/05/27 07:33:25;;;;;;;8.68;3.10;;;;;;;;;;4955143;28;20129;-71
2023/05/27 07:35:50;;;;;;;2.75;1.50;;;;;;;;;;4943247;28;20053;-70
2023/05/27 07:38:16;;;;;;;10.52;3.65;;;;;;;;;;4956828;28;20082;-71
2023/05/27 07:40:41;;;;;;;11.93;3.45;;;;;;;;;;4958346;28;20104;-71
2023/05/27 07:43:06;;;;;;;7.50;2.50;;;;;;;;;;4945498;28;20042;-70
2023/05/27 07:45:32;;;;;;;8.63;2.92;;;;;;;;;;4950167;28;20058;-70
2023/05/27 07:47:57;;;;;;;9.15;2.97;;;;;;;;;;4940756;28;20475;-71
2023/05/27 07:50:23;;;;;;;7.60;2.80;;;;;;;;;;4948710;28;20050;-69
2023/05/27 07:52:48;;;;;;;8.43;2.88;;;;;;;;;;4954817;28;20502;-70
2023/05/27 07:55:14;;;;;;;8.82;2.88;;;;;;;;;;4958039;28;20038;-71
2023/05/27 07:57:40;;;;;;;6.15;2.58;;;;;;;;;;4944754;28;20044;-71
2023/05/27 08:00:06;;;;;;;5.70;1.65;;;;;;;;;;4957159;28;20034;-69
2023/05/27 08:02:32;;;;;;;2.97;1.10;;;;;;;;;;4956875;28;20060;-70
2023/05/27 08:04:57;;;;;;;5.00;1.33;;;;;;;;;;4911849;28;20041;-70
2023/05/27 08:07:22;;;;;;;8.55;2.80;;;;;;;;;;4955669;28;20133;-71
2023/05/27 08:09:48;;;;;;;5.93;2.45;;;;;;;;;;4946345;28;20096;-71
2023/05/27 08:12:13;;;;;;;11.85;3.22;;;;;;;;;;4956063;28;20069;-70
2023/05/27 08:14:40;;;;;;;2.17;0.98;;;;;;;;;;4957695;28;20069;-70
2023/05/27 08:17:06;;;;;;;7.95;2.58;;;;;;;;;;4955973;28;20042;-70
2023/05/27 08:19:31;;;;;;;10.90;3.70;;;;;;;;;;4947174;28;20055;-71
2023/05/27 08:21:57;;;;;;;4.25;1.83;;;;;;;;;;4960443;28;20518;-70
2023/05/27 08:24:22;;;;;;;5.60;1.48;;;;;;;;;;4951443;28;20031;-69
2023/05/27 08:26:50;;;;;;;3.95;1.70;;;;;;;;;;4959433;28;20034;-71
2023/05/27 08:29:15;;;;;;;11.98;3.17;;;;;;;;;;4959985;28;20038;-70
2023/05/27 08:31:42;;;;;;;8.13;3.28;;;;;;;;;;4947495;28;20400;-70
2023/05/27 08:34:08;;;;;;;9.60;3.03;;;;;;;;;;4960547;28;20097;-71
2023/05/27 08:36:33;;;;;;;7.68;2.83;;;;;;;;;;4959418;28;20058;-70
2023/05/27 08:38:59;;;;;;;6.50;2.40;;;;;;;;;;4951274;28;20035;-71
2023/05/27 08:41:27;;;;;;;6.22;3.13;;;;;;;;;;4957730;28;21061;-71
2023/05/27 08:43:53;;;;;;;9.60;2.90;;;;;;;;;;4960539;28;20034;-71
2023/05/27 08:46:19;;;;;;;3.78;1.42;;;;;;;;;;4947395;28;20043;-70
2023/05/27 08:48:46;;;;;;;7.22;3.10;;;;;;;;;;4960638;28;20098;-70
2023/05/27 08:51:13;;;;;;;7.90;2.70;;;;;;;;;;4958719;28;20050;-70
2023/05/27 08:53:39;;;;;;;7.60;2.67;;;;;;;;;;4933226;28;20054;-70
2023/05/27 08:56:06;;;;;;;9.63;2.90;;;;;;;;;;4956935;28;20042;-71
2023/05/27 08:58:32;;;;;;;10.50;3.00;;;;;;;;;;4956201;28;20586;-71
2023/05/27 09:00:57;;;;;;;8.00;2.88;;;;;;;;;;4948047;28;20135;-71
2023/05/27 09:03:23;;;;;;;4.47;1.80;;;;;;;;;;4956233;28;20674;-72
2023/05/27 09:05:49;;;;;;;8.75;2.50;;;;;;;;;;4934447;28;20403;-71
2023/05/27 09:08:14;;;;;;;6.57;2.65;;;;;;;;;;4958386;28;20042;-70
2023/05/27 09:10:41;;;;;;;7.45;2.50;;;;;;;;;;4957034;28;20612;-72
2023/05/27 09:13:07;;;;;;;10.27;2.47;;;;;;;;;;4945294;28;20038;-71
2023/05/27 09:15:33;;;;;;;7.55;2.53;;;;;;;;;;4957313;28;20574;-71
2023/05/27 09:17:58;;;;;;;4.25;2.17;;;;;;;;;;4957885;28;20133;-72
2023/05/27 09:20:27;;;;;;;8.75;3.00;;;;;;;;;;4948100;28;20161;-71
2023/05/27 09:23:00;;;;;;;9.38;2.75;;;;;;;;;;4959133;28;20043;-71
2023/05/27 09:25:27;;;;;;;9.07;3.10;;;;;;;;;;4956792;28;20100;-69
2023/05/27 09:27:53;;;;;;;7.95;2.45;;;;;;;;;;4948949;28;20500;-71
2023/05/27 09:30:20;;;;;;;10.38;3.45;;;;;;;;;;4956441;28;20038;-72
2023/05/27 09:32:46;;;;;;;7.88;2.70;;;;;;;;;;4948728;28;20105;-72
2023/05/27 09:35:13;;;;;;;5.95;2.28;;;;;;;;;;4955288;28;20392;-71
2023/05/27 09:37:38;;;;;;;7.07;2.83;;;;;;;;;;4961645;28;20597;-70
2023/05/27 09:40:09;;;;;;;3.58;1.48;;;;;;;;;;4945438;28;20074;-71
2023/05/27 09:42:50;;;;;;;9.20;2.90;;;;;;;;;;4958565;28;20058;-71
2023/05/27 09:45:18;;;;;;;6.40;2.90;;;;;;;;;;4944779;28;20039;-70
2023/05/27 09:47:51;;;;;;;7.80;3.08;;;;;;;;;;4952790;28;20038;-72
2023/05/27 09:50:17;;;;;;;8.40;2.55;;;;;;;;;;4957854;28;20466;-72
2023/05/27 09:52:47;;;;;;;5.47;1.75;;;;;;;;;;4943591;28;20035;-71
2023/05/27 09:55:13;;;;;;;5.80;3.00;;;;;;;;;;4956908;28;20511;-70
2023/05/27 09:57:40;;;;;;;7.72;3.15;;;;;;;;;;4931236;28;20054;-72
2023/05/27 10:00:15;;;;;;;4.20;2.28;;;;;;;;;;4956220;28;20045;-69
2023/05/27 10:02:45;;;;;;;8.98;3.13;;;;;;;;;;4941762;28;20117;-70
2023/05/27 10:05:13;;;;;;;7.30;2.97;;;;;;;;;;4947020;28;20918;-70
2023/05/27 10:07:40;;;;;;;7.10;2.67;;;;;;;;;;4954232;28;20038;-70
2023/05/27 10:10:11;;;;;;;9.13;2.95;;;;;;;;;;4940077;28;20042;-71
2023/05/27 10:12:38;;;;;;;8.48;2.80;;;;;;;;;;4951348;28;20070;-70
2023/05/27 10:15:04;;;;;;;7.18;3.10;;;;;;;;;;4952837;28;20035;-70
2023/05/27 10:17:52;;;;;;;11.93;3.50;;;;;;;;;;4941126;28;20047;-70
2023/05/27 10:20:29;;;;;;;6.43;2.72;;;;;;;;;;4953757;28;20039;-71
2023/05/27 10:22:56;;;;;;;7.95;2.67;;;;;;;;;;4947387;28;20041;-69
2023/05/27 10:25:22;;;;;;;8.10;3.30;;;;;;;;;;4942670;28;20055;-71
2023/05/27 10:27:48;;;;;;;6.40;2.60;;;;;;;;;;4940660;28;20118;-71
2023/05/27 10:30:15;;;;;;;8.98;2.47;;;;;;;;;;4952129;28;20073;-71
2023/05/27 10:32:47;;;;;;;6.35;2.55;;;;;;;;;;4958861;28;20470;-72
2023/05/27 10:35:13;;;;;;;9.80;4.03;;;;;;;;;;4941321;28;20089;-71
2023/05/27 10:37:41;;;;;;;11.77;6.05;;;;;;;;;;4959096;28;20426;-71
2023/05/27 10:40:07;;;;;;;15.25;7.25;;;;;;;;;;4953065;28;20039;-70
2023/05/27 10:42:32;;;;;;;22.92;12.82;;;;;;;;;;4947168;28;20040;-71
2023/05/27 10:45:06;;;;;;;13.15;8.60;;;;;;;;;;4956658;28;20039;-70
2023/05/27 10:47:36;;;;;;;26.45;12.07;;;;;;;;;;4953021;28;20050;-70
2023/05/27 10:50:10;;;;;;;8.00;3.00;;;;;;;;;;4941390;28;20043;-71
2023/05/27 10:52:38;;;;;;;5.60;2.13;;;;;;;;;;4941854;28;20081;-71
2023/05/27 10:55:05;;;;;;;9.77;4.90;;;;;;;;;;4954248;28;20084;-71
2023/05/27 10:57:31;;;;;;;15.50;7.78;;;;;;;;;;4943924;28;20046;-72
2023/05/27 11:00:01;;;;;;;9.98;4.65;;;;;;;;;;4955753;28;20161;-71
2023/05/27 11:02:35;;;;;;;5.57;2.20;;;;;;;;;;4940809;28;20470;-72
2023/05/27 11:05:00;;;;;;;4.10;1.70;;;;;;;;;;4951761;28;20046;-71
2023/05/27 11:07:26;;;;;;;7.00;2.97;;;;;;;;;;4940435;28;20150;-71
2023/05/27 11:09:55;;;;;;;9.40;4.57;;;;;;;;;;4954827;28;20066;-71
2023/05/27 11:12:22;;;;;;;7.80;3.45;;;;;;;;;;4951991;28;20043;-70
2023/05/27 11:14:53;;;;;;;6.45;2.72;;;;;;;;;;4939165;28;20499;-70
2023/05/27 11:17:20;;;;;;;5.60;2.33;;;;;;;;;;4942274;28;20472;-70
2023/05/27 11:19:46;;;;;;;6.25;2.22;;;;;;;;;;4945600;28;20116;-70
2023/05/27 11:22:12;;;;;;;6.15;3.20;;;;;;;;;;4955604;28;20113;-71
2023/05/27 11:24:38;;;;;;;6.15;2.70;;;;;;;;;;4958590;28;20626;-71
2023/05/27 11:27:10;;;;;;;6.07;2.53;;;;;;;;;;4942138;28;20038;-72
2023/05/27 11:29:36;;;;;;;4.55;2.00;;;;;;;;;;4958194;28;20467;-72
2023/05/27 11:32:03;;;;;;;6.53;2.28;;;;;;;;;;4940501;28;20043;-73
2023/05/27 11:34:28;;;;;;;6.32;2.55;;;;;;;;;;4954899;28;20181;-70
2023/05/27 11:36:55;;;;;;;8.90;3.30;;;;;;;;;;4946462;28;20125;-72
2023/05/27 11:39:21;;;;;;;6.88;2.70;;;;;;;;;;4952072;28;20530;-70
2023/05/27 11:41:53;;;;;;;8.73;2.35;;;;;;;;;;4944706;28;20181;-71
2023/05/27 11:44:22;;;;;;;5.88;3.10;;;;;;;;;;4956836;28;20046;-71
2023/05/27 11:46:49;;;;;;;3.20;1.58;;;;;;;;;;4939600;28;20065;-70
2023/05/27 11:49:18;;;;;;;3.53;1.95;;;;;;;;;;4948517;28;20065;-71
2023/05/27 11:51:45;;;;;;;6.07;2.17;;;;;;;;;;4954256;28;20060;-69
2023/05/27 11:54:27;;;;;;;5.28;2.63;;;;;;;;;;4945511;28;20045;-71
2023/05/27 11:56:54;;;;;;;6.53;2.78;;;;;;;;;;4956854;28;20096;-70
2023/05/27 11:59:21;;;;;;;4.78;2.10;;;;;;;;;;4932080;28;20044;-72
2023/05/27 12:01:47;;;;;;;3.80;2.00;;;;;;;;;;4946437;28;20487;-69
2023/05/27 12:04:12;;;;;;;6.10;2.60;;;;;;;;;;4954773;28;20038;-72
2023/05/27 12:06:38;;;;;;;3.67;2.05;;;;;;;;;;4948135;28;20038;-71
2023/05/27 12:09:08;;;;;;;7.82;2.35;;;;;;;;;;4952057;28;20039;-71
2023/05/27 12:11:34;;;;;;;6.90;2.20;;;;;;;;;;4943505;28;20438;-71
2023/05/27 12:14:00;;;;;;;7.18;2.80;;;;;;;;;;4952379;28;20038;-70
2023/05/27 12:16:26;;;;;;;6.93;2.25;;;;;;;;;;4950822;28;20055;-70
2023/05/27 12:18:51;;;;;;;6.60;2.60;;;;;;;;;;4940590;28;20045;-72
2023/05/27 12:21:17;;;;;;;7.68;2.60;;;;;;;;;;4952079;28;20117;-72
2023/05/27 12:23:43;;;;;;;4.38;1.73;;;;;;;;;;4958064;28;20447;-71
2023/05/27 12:26:09;;;;;;;3.63;1.60;;;;;;;;;;4944598;28;20043;-70
2023/05/27 12:28:35;;;;;;;6.30;2.95;;;;;;;;;;4957868;28;20049;-70
2023/05/27 12:31:00;;;;;;;4.88;2.13;;;;;;;;;;4950024;28;20050;-71
2023/05/27 12:33:26;;;;;;;8.77;2.60;;;;;;;;;;4946568;28;20038;-72
2023/05/27 12:35:52;;;;;;;6.57;2.20;;;;;;;;;;4955779;28;20118;-70
2023/05/27 12:38:17;;;;;;;5.47;2.15;;;;;;;;;;4953610;28;20053;-72
2023/05/27 12:40:42;;;;;;;6.97;2.20;;;;;;;;;;4931081;28;20039;-71
2023/05/27 12:43:08;;;;;;;4.45;2.15;;;;;;;;;;4950041;28;20070;-70
2023/05/27 12:45:33;;;;;;;4.72;2.10;;;;;;;;;;4938996;28;20054;-72
2023/05/27 12:47:59;;;;;;;4.43;2.28;;;;;;;;;;4930753;28;20109;-69
2023/05/27 12:50:25;;;;;;;4.18;2.35;;;;;;;;;;4949529;28;20159;-70
2023/05/27 12:52:51;;;;;;;3.60;1.98;;;;;;;;;;4950880;28;20552;-72
2023/05/27 12:55:18;;;;;;;5.70;2.45;;;;;;;;;;4940797;28;20046;-72
2023/05/27 12:57:48;;;;;;;8.52;2.35;;;;;;;;;;4936203;28;20038;-71
2023/05/27 13:00:14;;;;;;;3.90;1.98;;;;;;;;;;4952936;28;20049;-72
2023/05/27 13:02:40;;;;;;;4.70;1.70;;;;;;;;;;4947879;28;20718;-71
2023/05/27 13:05:08;;;;;;;4.18;1.65;;;;;;;;;;4953179;28;20047;-70
2023/05/27 13:07:34;;;;;;;6.88;2.40;;;;;;;;;;4947354;28;20930;-70
2023/05/27 13:10:05;;;;;;;5.45;2.60;;;;;;;;;;4955304;28;20050;-72
2023/05/27 13:12:32;;;;;;;5.88;2.15;;;;;;;;;;4961137;28;20034;-72
2023/05/27 13:14:58;;;;;;;4.38;1.83;;;;;;;;;;4948002;28;20130;-72
2023/05/27 13:17:24;;;;;;;2.97;1.33;;;;;;;;;;4952845;28;20039;-71
2023/05/27 13:19:49;;;;;;;5.43;1.92;;;;;;;;;;4955235;28;20061;-71
2023/05/27 13:22:14;;;;;;;6.53;2.97;;;;;;;;;;4953805;28;20060;-72
2023/05/27 13:24:40;;;;;;;5.95;2.47;;;;;;;;;;4944678;28;20113;-71
2023/05/27 13:27:06;;;;;;;4.57;1.75;;;;;;;;;;4952854;28;20045;-70
2023/05/27 13:29:32;;;;;;;5.28;2.65;;;;;;;;;;4950490;28;20035;-70
2023/05/27 13:31:57;;;;;;;6.13;2.85;;;;;;;;;;4954260;28;20694;-72
2023/05/27 13:34:24;;;;;;;6.93;2.53;;;;;;;;;;4948665;28;20696;-72
2023/05/27 13:36:49;;;;;;;4.97;1.88;;;;;;;;;;4959419;28;20038;-72
2023/05/27 13:39:14;;;;;;;4.57;2.20;;;;;;;;;;4954523;28;20041;-72
2023/05/27 13:41:40;;;;;;;5.40;2.40;;;;;;;;;;4960272;28;20073;-70
2023/05/27 13:44:05;;;;;;;4.13;2.47;;;;;;;;;;4946129;28;20043;-70
2023/05/27 13:46:30;;;;;;;6.90;2.45;;;;;;;;;;4952630;28;20047;-71
2023/05/27 13:48:56;;;;;;;3.42;1.90;;;;;;;;;;4942672;28;20042;-71
2023/05/27 13:51:21;;;;;;;6.00;2.05;;;;;;;;;;4959112;28;20043;-71
2023/05/27 13:53:48;;;;;;;6.25;2.53;;;;;;;;;;4941034;28;20088;-72
2023/05/27 13:56:14;;;;;;;6.00;2.95;;;;;;;;;;4957511;28;20039;-73
2023/05/27 13:58:39;;;;;;;7.68;2.47;;;;;;;;;;4945280;28;20163;-73
2023/05/27 14:01:05;;;;;;;4.47;2.25;;;;;;;;;;4948565;28;20467;-71
2023/05/27 14:03:30;;;;;;;5.55;2.25;;;;;;;;;;4949783;28;20046;-72
2023/05/27 14:05:56;;;;;;;4.85;2.22;;;;;;;;;;4957750;28;20035;-71
2023/05/27 14:08:22;;;;;;;6.10;2.70;;;;;;;;;;4958798;28;20055;-70
2023/05/27 14:10:47;;;;;;;4.40;2.30;;;;;;;;;;4943794;28;20089;-73
2023/05/27 14:13:13;;;;;;;2.97;1.30;;;;;;;;;;4955371;28;20137;-72
2023/05/27 14:15:38;;;;;;;5.22;2.28;;;;;;;;;;4953980;28;20045;-71
2023/05/27 14:18:05;;;;;;;5.95;2.25;;;;;;;;;;4940711;28;20046;-72
2023/05/27 14:20:30;;;;;;;5.28;2.33;;;;;;;;;;4955149;28;20124;-70
2023/05/27 14:22:58;;;;;;;6.30;2.28;;;;;;;;;;4952727;28;20074;-70
2023/05/27 14:25:24;;;;;;;4.20;2.13;;;;;;;;;;4948433;28;20129;-72
2023/05/27 14:27:49;;;;;;;4.57;2.38;;;;;;;;;;4958658;28;20251;-71
2023/05/27 14:30:15;;;;;;;6.15;2.63;;;;;;;;;;4956059;28;20146;-72
2023/05/27 14:32:41;;;;;;;6.50;2.40;;;;;;;;;;4942374;28;20111;-72
2023/05/27 14:35:07;;;;;;;4.95;2.28;;;;;;;;;;4956360;28;20169;-72
2023/05/27 14:37:33;;;;;;;5.57;2.05;;;;;;;;;;4956933;28;20058;-70